Terminal Aerodrome Forecast
Issued by NWS Pocatello, ID

Home | Current Version | Previous Version | Text Only | Print | Product List | Glossary On
Versions: 1 2 3 4 5 6 7 8 9 10 11 12 13 14 15 16 17
000
FTUS45 KPIH 262320
TAFBYI
TAF
KBYI 262320Z 2700/2724 24007KT P6SM -SHRA VCTS SCT070CB OVC120
     FM270300 21007KT P6SM SCT120
     FM270900 VRB06KT P6SM VCSH SCT070 BKN100
     FM271800 30009KT P6SM VCTS OVC090CB=

USA.gov is the U.S. government's official web portal to all federal, state and local government web resources and services.